Ryori, Japan

1:37 AM JST on September 21, 2014 (GMT +0900)
Hanamaki | Change Station
CLOSE
Current Station
Airport
Location: Hanamaki,
Elevation: 302 ft
Nearby Weather Stations

Elev 302 ft 39.43 °N, 141.14 °E | Updated 6 hours ago

Clear
Clear
42 °F
Feels Like 42 °F
N
2
Wind Variable Wind from NW
Gusts mph

Today
High -- | Low -- °F
--% Chance of Precip.
Yesterday
High -- | Low -- °F
Precip. -- in
5:18 AM 5:32 PM
Waning Crescent, 11% visible
Pressure 29.95 in
Visibility 6.2 miles
Clouds Few 4000 ft
Mostly Cloudy 7000 ft
Dew Point 40 °F
Humidity 91%
Rainfall 0.00 in
Snow Depth Not available.
UV 0 out of 12
Pollen Not available.
Air Quality Not available.
Flu Activity Not available.
METAR RJSI 201000Z VRB02KT 9999 FEW040 BKN070 17/10 Q1014

More Conditions Fewer Conditions

Pressure 29.95 in
Visibility 6.2 miles
Clouds Few 4000 ft
Mostly Cloudy 7000 ft
Dew Point 40 °F
Humidity 91%
Rainfall 0.00 in
Snow Depth Not available.
UV 0 out of 12
Pollen Not available.
Air Quality Not available.
Flu Activity Not available.
METAR RJSI 201000Z VRB02KT 9999 FEW040 BKN070 17/10 Q1014

More Conditions Fewer Conditions

10-Day Weather Forecast

Almanac

Astronomy

Sep. 21, 2014 Rise Set
Actual Time 5:18 AM JST 5:32 PM JST
Civil Twilight 4:52 AM JST 5:58 PM JST
Nautical Twilight 4:20 AM JST 6:30 PM JST
Astronomical Twilight 3:49 AM JST 7:01 PM JST
Moon 2:18 AM JST (9/21) 3:46 PM JST (9/21)
Length of Visible Light 13h 06m
Length of Day
12h 13m
Tomorrow will be 2m 31s shorter.
Waning Crescent, 11% of the Moon is Illuminated
Sep 20
Waning Crescent
Sep 24
New
Oct 1
First Quarter
Oct 8
Full
Oct 15
Last Quarter

Yesterday's Extremes

Country Highs Country Lows

Community

WunderPhotos

Upload Photos

1,754,892 photos uploaded!

Nearby

Snow Depth

Not available.

Earthquake Activity

City Distance Mag. Time & Date
No recent earthquake activity has been reported nearby.
Minimum magnitude displayed is 2.5.

Coastal Water Temperatures

Place Temperature
No Stations Reporting

Nearby Weather Stations